Time;durP1;ratioP1;P1;durP2;ratioP2;P2;SDS_P1;SDS_P2;PMS_P1;PMS_P2;Temp;Humidity;BMP_temperature;BMP_pressure;BME280_temperature;BME280_humidity;BME280_pressure;Samples;Min_cycle;Max_cycle;Signal;HPM_P1;HPM_P2
2023/05/10 00:00:33;;;;;;;28.10;17.05;;;13.50;92.00;;;;;;5000651;28;20099;-83
2023/05/10 00:02:58;;;;;;;27.35;17.05;;;13.50;92.00;;;;;;5002712;28;20496;-81
2023/05/10 00:05:24;;;;;;;25.45;17.38;;;13.50;92.00;;;;;;5003800;28;20223;-81
2023/05/10 00:07:50;;;;;;;28.55;19.27;;;13.50;92.00;;;;;;5003296;28;20063;-80
2023/05/10 00:10:15;;;;;;;24.75;17.67;;;13.50;91.90;;;;;;5003448;28;20076;-82
2023/05/10 00:12:41;;;;;;;29.30;18.50;;;13.50;92.00;;;;;;5002257;28;20049;-81
2023/05/10 00:15:09;;;;;;;28.42;18.42;;;13.50;92.00;;;;;;5004171;28;20029;-81
2023/05/10 00:17:35;;;;;;;28.38;19.00;;;13.50;91.90;;;;;;5000791;28;20034;-83
2023/05/10 00:20:00;;;;;;;26.38;18.80;;;13.50;91.80;;;;;;4998444;28;20029;-84
2023/05/10 00:22:26;;;;;;;28.10;20.05;;;13.50;91.90;;;;;;4999673;28;20046;-83
2023/05/10 00:24:52;;;;;;;28.17;19.38;;;13.40;91.70;;;;;;4999698;28;20073;-81
2023/05/10 00:27:18;;;;;;;30.23;19.48;;;13.40;91.70;;;;;;4976671;28;20046;-81
2023/05/10 00:29:43;;;;;;;28.45;20.45;;;13.40;91.80;;;;;;5005573;28;20034;-81
2023/05/10 00:32:09;;;;;;;28.02;20.02;;;13.40;91.80;;;;;;4993528;28;20038;-84
2023/05/10 00:34:35;;;;;;;31.83;20.33;;;13.30;91.70;;;;;;5011522;28;20041;-81
2023/05/10 00:37:01;;;;;;;29.75;20.10;;;13.30;91.80;;;;;;4989326;28;20180;-80
2023/05/10 00:39:28;;;;;;;31.38;21.02;;;13.30;91.90;;;;;;5011702;28;20032;-80
2023/05/10 00:41:54;;;;;;;35.55;22.40;;;13.30;91.80;;;;;;5004953;28;20306;-81
2023/05/10 00:44:20;;;;;;;34.53;22.67;;;13.20;91.70;;;;;;4994989;28;20573;-81
2023/05/10 00:46:46;;;;;;;35.60;23.05;;;13.20;91.90;;;;;;4986610;28;20054;-82
2023/05/10 00:49:12;;;;;;;32.10;21.73;;;13.20;91.80;;;;;;5008316;28;20021;-80
2023/05/10 00:51:38;;;;;;;33.53;22.02;;;13.20;91.70;;;;;;5003044;28;20053;-80
2023/05/10 00:54:05;;;;;;;34.08;21.92;;;13.10;91.70;;;;;;5002329;28;20052;-81
2023/05/10 00:56:31;;;;;;;31.73;21.67;;;13.10;91.60;;;;;;5001965;28;20034;-82
2023/05/10 00:58:57;;;;;;;34.17;22.15;;;13.10;91.70;;;;;;4985340;28;20482;-81
2023/05/10 01:01:22;;;;;;;39.90;22.90;;;13.10;91.70;;;;;;5005970;28;20046;-83
2023/05/10 01:03:49;;;;;;;36.40;23.20;;;13.10;91.90;;;;;;4997997;28;20030;-80
2023/05/10 01:06:15;;;;;;;37.50;23.20;;;13.10;92.00;;;;;;4993564;28;20054;-81
2023/05/10 01:08:40;;;;;;;32.33;22.25;;;13.10;92.00;;;;;;4998605;28;20573;-81
2023/05/10 01:11:06;;;;;;;32.45;21.95;;;13.10;91.80;;;;;;4993888;28;20049;-81
2023/05/10 01:13:39;;;;;;;34.63;23.08;;;13.10;91.90;;;;;;4997088;28;20034;-81
2023/05/10 01:16:06;;;;;;;35.95;23.00;;;13.10;91.90;;;;;;5003947;28;20042;-83
2023/05/10 01:18:36;;;;;;;36.20;23.05;;;13.10;91.90;;;;;;5002424;28;20070;-81
2023/05/10 01:21:19;;;;;;;36.85;23.63;;;13.00;92.00;;;;;;4998872;28;20045;-81
2023/05/10 01:24:03;;;;;;;39.10;24.48;;;13.00;92.00;;;;;;5006563;28;20490;-81
2023/05/10 01:26:40;;;;;;;38.17;23.85;;;13.10;92.10;;;;;;5001362;28;20062;-82
2023/05/10 01:29:37;;;;;;;39.60;23.48;;;13.10;92.10;;;;;;5005009;28;20479;-81
2023/05/10 01:32:16;;;;;;;38.20;23.20;;;13.10;92.00;;;;;;4988577;28;20476;-82
2023/05/10 01:35:08;;;;;;;38.10;24.52;;;13.10;92.00;;;;;;4997962;28;20128;-82
2023/05/10 01:38:06;;;;;;;36.50;23.38;;;13.10;92.10;;;;;;4989669;28;20055;-80
2023/05/10 01:40:48;;;;;;;33.20;22.98;;;13.10;92.00;;;;;;4986027;28;20084;-81
2023/05/10 01:43:28;;;;;;;34.08;22.52;;;13.10;91.90;;;;;;5007391;28;20101;-80
2023/05/10 01:46:00;;;;;;;33.42;21.50;;;13.10;91.90;;;;;;5003164;28;20101;-80
2023/05/10 01:48:28;;;;;;;31.95;23.08;;;13.10;91.80;;;;;;4987790;28;20038;-83
2023/05/10 01:50:56;;;;;;;35.85;22.88;;;13.10;91.90;;;;;;5005940;28;20014;-81
2023/05/10 01:53:23;;;;;;;34.80;22.02;;;13.10;91.80;;;;;;5010663;28;20149;-85
2023/05/10 01:55:53;;;;;;;30.10;21.20;;;13.10;91.70;;;;;;5001898;28;20022;-80
2023/05/10 01:58:24;;;;;;;32.53;22.33;;;13.10;91.90;;;;;;5017170;28;20037;-80
2023/05/10 02:00:52;;;;;;;32.28;22.13;;;13.10;91.90;;;;;;5018764;28;20628;-85
2023/05/10 02:03:23;;;;;;;35.25;22.23;;;13.10;91.90;;;;;;5016207;28;20361;-81
2023/05/10 02:05:51;;;;;;;32.90;21.83;;;13.10;91.80;;;;;;5008449;28;20026;-80
2023/05/10 02:08:19;;;;;;;31.88;21.88;;;13.10;91.80;;;;;;4994247;28;20026;-81
2023/05/10 02:10:46;;;;;;;35.17;22.25;;;13.20;91.70;;;;;;5008156;28;20064;-83
2023/05/10 02:13:13;;;;;;;35.45;22.60;;;13.10;91.80;;;;;;4990000;28;20021;-81
2023/05/10 02:15:41;;;;;;;37.33;22.52;;;13.10;91.90;;;;;;5004619;28;20064;-84
2023/05/10 02:18:09;;;;;;;32.25;21.75;;;13.10;91.80;;;;;;5007320;28;20053;-80
2023/05/10 02:20:35;;;;;;;37.90;24.02;;;13.10;91.80;;;;;;5003305;28;20458;-81
2023/05/10 02:23:03;;;;;;;36.67;24.65;;;13.10;92.00;;;;;;5006982;28;20045;-80
2023/05/10 02:25:30;;;;;;;39.00;25.90;;;13.10;91.90;;;;;;4985838;28;20040;-80
2023/05/10 02:27:57;;;;;;;43.92;27.27;;;13.10;92.00;;;;;;4986548;28;20841;-82
2023/05/10 02:30:24;;;;;;;44.85;27.35;;;13.10;92.00;;;;;;5006095;28;20198;-80
2023/05/10 02:32:51;;;;;;;41.63;27.63;;;13.10;92.10;;;;;;5005232;28;20037;-82
2023/05/10 02:35:18;;;;;;;39.40;27.30;;;13.10;92.10;;;;;;5004207;28;20030;-83
2023/05/10 02:37:44;;;;;;;42.83;28.55;;;13.10;92.10;;;;;;5002714;28;20144;-80
2023/05/10 02:40:11;;;;;;;41.25;29.70;;;13.10;92.00;;;;;;4987781;28;20084;-82
2023/05/10 02:42:38;;;;;;;45.50;30.27;;;13.10;92.10;;;;;;4998849;28;20034;-80
2023/05/10 02:45:20;;;;;;;43.90;30.67;;;13.10;92.10;;;;;;4999613;28;20053;-81
2023/05/10 02:47:47;;;;;;;44.53;30.60;;;13.10;92.10;;;;;;5002061;28;20038;-82
2023/05/10 02:50:13;;;;;;;46.38;31.45;;;13.00;92.10;;;;;;4999587;28;20026;-81
2023/05/10 02:52:49;;;;;;;48.70;34.15;;;13.00;92.20;;;;;;4999081;28;20030;-80
2023/05/10 02:55:19;;;;;;;49.40;33.65;;;13.00;92.30;;;;;;5002394;28;20032;-80
2023/05/10 02:58:05;;;;;;;44.92;32.28;;;13.00;92.30;;;;;;5002089;28;20036;-80
2023/05/10 03:00:31;;;;;;;42.78;29.83;;;12.90;92.20;;;;;;4999428;28;20469;-80
2023/05/10 03:02:56;;;;;;;48.67;31.67;;;13.00;92.10;;;;;;4983411;28;20513;-80
2023/05/10 03:05:23;;;;;;;42.97;29.92;;;12.90;92.00;;;;;;5004494;28;20030;-80
2023/05/10 03:07:49;;;;;;;42.22;31.25;;;12.90;92.00;;;;;;5004981;28;20037;-82
2023/05/10 03:10:15;;;;;;;43.08;31.27;;;12.90;92.10;;;;;;5003530;28;20374;-80
2023/05/10 03:12:57;;;;;;;41.53;29.95;;;12.90;92.10;;;;;;4990441;28;20065;-79
2023/05/10 03:15:30;;;;;;;44.92;31.30;;;12.90;92.10;;;;;;5000065;28;20029;-79
2023/05/10 03:18:12;;;;;;;40.40;30.55;;;12.90;92.00;;;;;;4993697;28;20240;-80
2023/05/10 03:20:38;;;;;;;46.13;31.00;;;13.00;92.20;;;;;;4998364;28;20029;-82
2023/05/10 03:23:12;;;;;;;46.70;31.17;;;13.00;92.00;;;;;;4993642;28;20033;-81
2023/05/10 03:25:39;;;;;;;;;;;13.00;91.80;;;;;;4990340;28;20022;-81
2023/05/10 03:28:06;;;;;;;54.05;35.05;;;13.00;91.90;;;;;;5002401;28;20358;-79
2023/05/10 03:30:33;;;;;;;60.30;37.53;;;12.90;91.70;;;;;;4985204;28;20124;-81
2023/05/10 03:33:05;;;;;;;56.03;36.25;;;12.90;91.80;;;;;;5009178;28;20026;-80
2023/05/10 03:35:30;;;;;;;59.80;37.53;;;12.90;91.90;;;;;;5003142;28;20493;-82
2023/05/10 03:37:56;;;;;;;59.47;39.70;;;12.90;91.90;;;;;;5004328;28;20030;-81
2023/05/10 03:40:22;;;;;;;63.90;39.38;;;12.90;91.80;;;;;;5003950;28;20124;-82
2023/05/10 03:42:48;;;;;;;66.18;40.90;;;12.80;91.80;;;;;;4986221;28;20064;-80
2023/05/10 03:45:14;;;;;;;65.53;40.38;;;12.90;91.90;;;;;;5007138;28;20367;-81
2023/05/10 03:47:40;;;;;;;64.43;40.65;;;12.80;91.90;;;;;;5003655;28;20111;-81
2023/05/10 03:50:06;;;;;;;61.90;40.63;;;12.80;91.90;;;;;;4985937;28;20470;-81
2023/05/10 03:52:32;;;;;;;66.82;40.88;;;12.80;91.90;;;;;;5002842;28;20035;-80
2023/05/10 03:54:58;;;;;;;64.88;41.17;;;12.80;91.90;;;;;;4998669;28;20018;-82
2023/05/10 03:57:23;;;;;;;64.75;39.65;;;12.80;92.00;;;;;;5004908;28;20030;-80
2023/05/10 03:59:49;;;;;;;62.72;40.08;;;12.80;91.90;;;;;;5001968;28;20116;-81
2023/05/10 04:02:15;;;;;;;71.53;40.75;;;12.80;91.80;;;;;;5004383;28;20034;-80
2023/05/10 04:04:41;;;;;;;66.72;40.30;;;12.80;91.90;;;;;;5002258;28;20524;-81
2023/05/10 04:07:07;;;;;;;70.88;43.17;;;12.70;92.00;;;;;;4983396;28;20481;-80
2023/05/10 04:09:33;;;;;;;69.72;41.17;;;12.80;92.20;;;;;;4985352;28;20121;-81
2023/05/10 04:12:00;;;;;;;64.43;39.20;;;12.80;92.10;;;;;;4999804;28;20482;-80
2023/05/10 04:14:26;;;;;;;65.22;38.85;;;12.80;92.20;;;;;;4997997;28;20033;-83
2023/05/10 04:16:51;;;;;;;66.90;38.88;;;12.80;92.10;;;;;;5003306;28;20050;-79
2023/05/10 04:19:17;;;;;;;66.10;41.35;;;12.70;92.10;;;;;;4995305;28;20026;-80
2023/05/10 04:21:43;;;;;;;59.05;38.88;;;12.70;92.10;;;;;;5002868;28;20030;-80
2023/05/10 04:24:08;;;;;;;60.53;37.25;;;12.70;92.10;;;;;;5002830;28;20382;-81
2023/05/10 04:26:34;;;;;;;57.50;35.78;;;12.70;92.20;;;;;;5000504;28;20076;-81
2023/05/10 04:29:00;;;;;;;56.35;35.05;;;12.80;92.30;;;;;;5004297;28;20134;-80
2023/05/10 04:31:26;;;;;;;55.10;34.28;;;12.80;92.30;;;;;;5000123;28;20048;-84
2023/05/10 04:33:52;;;;;;;56.80;36.97;;;12.80;92.30;;;;;;4987083;28;20117;-81
2023/05/10 04:36:18;;;;;;;58.08;37.75;;;12.80;92.30;;;;;;4987700;28;20453;-79
2023/05/10 04:38:43;;;;;;;61.92;36.28;;;12.80;92.30;;;;;;5001004;28;20023;-83
2023/05/10 04:41:10;;;;;;;58.45;36.83;;;12.90;92.20;;;;;;5001195;28;20038;-80
2023/05/10 04:43:37;;;;;;;61.10;38.80;;;12.80;92.20;;;;;;5002519;28;20030;-80
2023/05/10 04:46:03;;;;;;;62.55;38.47;;;12.80;92.20;;;;;;4999811;28;20047;-82
2023/05/10 04:48:28;;;;;;;59.10;37.55;;;12.80;92.20;;;;;;5000638;28;20034;-80
2023/05/10 04:50:54;;;;;;;56.95;36.50;;;12.80;92.20;;;;;;4974743;28;20533;-80
2023/05/10 04:53:20;;;;;;;56.53;36.22;;;12.80;92.10;;;;;;5004748;28;20028;-80
2023/05/10 04:55:46;;;;;;;60.15;36.45;;;12.80;92.20;;;;;;4994852;28;20034;-82
2023/05/10 04:58:12;;;;;;;59.05;36.20;;;12.90;92.20;;;;;;5002500;28;20104;-81
2023/05/10 05:00:38;;;;;;;60.10;36.38;;;12.90;92.20;;;;;;4998901;28;20148;-82
2023/05/10 05:03:03;;;;;;;56.35;34.05;;;12.90;92.00;;;;;;5001882;28;20471;-80
2023/05/10 05:05:29;;;;;;;56.40;33.60;;;12.90;92.00;;;;;;5000846;28;20080;-80
2023/05/10 05:07:55;;;;;;;60.55;34.85;;;13.00;92.10;;;;;;4997265;28;20050;-82
2023/05/10 05:10:20;;;;;;;55.17;32.88;;;13.00;92.00;;;;;;4997930;28;20023;-84
2023/05/10 05:12:46;;;;;;;51.88;32.47;;;13.00;92.00;;;;;;5001859;28;20434;-82
2023/05/10 05:15:12;;;;;;;63.17;35.60;;;13.00;92.00;;;;;;5000143;28;20101;-82
2023/05/10 05:17:37;;;;;;;56.97;34.67;;;13.00;92.00;;;;;;4999723;28;21081;-79
2023/05/10 05:20:04;;;;;;;64.68;37.53;;;13.10;92.10;;;;;;5001525;28;20022;-81
2023/05/10 05:22:29;;;;;;;59.28;34.00;;;13.00;92.00;;;;;;5008186;28;20030;-81
2023/05/10 05:24:56;;;;;;;65.95;37.00;;;13.10;92.00;;;;;;5005588;28;20080;-82
2023/05/10 05:27:24;;;;;;;65.07;36.15;;;13.10;91.90;;;;;;4986771;28;20404;-79
2023/05/10 05:29:50;;;;;;;66.53;39.00;;;13.10;91.90;;;;;;5007018;28;20092;-79
2023/05/10 05:32:16;;;;;;;65.88;37.40;;;13.10;91.80;;;;;;4982858;28;20041;-79
2023/05/10 05:34:44;;;;;;;67.13;38.55;;;13.10;91.70;;;;;;5004927;28;20053;-80
2023/05/10 05:37:16;;;;;;;61.80;38.15;;;13.20;91.80;;;;;;4987095;28;20046;-82
2023/05/10 05:39:43;;;;;;;62.05;35.40;;;13.20;91.80;;;;;;5003201;28;20054;-79
2023/05/10 05:42:09;;;;;;;62.75;35.63;;;13.20;91.60;;;;;;4995070;28;20105;-81
2023/05/10 05:44:35;;;;;;;58.10;35.38;;;13.30;91.60;;;;;;5004496;28;20038;-79
2023/05/10 05:47:01;;;;;;;57.40;35.08;;;13.40;91.50;;;;;;4982297;28;20190;-79
2023/05/10 05:49:26;;;;;;;64.18;37.00;;;13.40;91.30;;;;;;5004824;28;20038;-82
2023/05/10 05:51:52;;;;;;;58.60;34.20;;;13.40;91.00;;;;;;4983764;28;20042;-79
2023/05/10 05:54:18;;;;;;;57.58;35.58;;;13.30;91.00;;;;;;5002286;28;20030;-79
2023/05/10 05:56:44;;;;;;;58.10;34.05;;;13.30;90.80;;;;;;5009311;28;20076;-79
2023/05/10 05:59:10;;;;;;;58.95;36.28;;;13.30;90.90;;;;;;5007971;28;20034;-80
2023/05/10 06:01:36;;;;;;;59.97;34.53;;;13.30;90.70;;;;;;5002950;28;20049;-79
2023/05/10 06:04:02;;;;;;;58.53;34.25;;;13.30;90.80;;;;;;5000265;28;20029;-82
2023/05/10 06:06:28;;;;;;;57.38;34.55;;;13.30;90.80;;;;;;5000805;28;20390;-80
2023/05/10 06:08:54;;;;;;;52.05;32.17;;;13.50;90.80;;;;;;5007598;28;20454;-79
2023/05/10 06:11:20;;;;;;;56.72;36.15;;;13.40;90.70;;;;;;4999662;28;20034;-78
2023/05/10 06:13:47;;;;;;;59.88;35.38;;;13.60;90.50;;;;;;5005324;28;20038;-79
2023/05/10 06:16:13;;;;;;;55.17;33.60;;;13.60;90.30;;;;;;5004348;28;20046;-79
2023/05/10 06:18:39;;;;;;;59.35;35.90;;;13.60;90.40;;;;;;4987150;28;20066;-80
2023/05/10 06:21:05;;;;;;;58.35;34.40;;;13.70;90.30;;;;;;5003599;28;20453;-78
2023/05/10 06:23:30;;;;;;;58.97;35.00;;;13.80;90.20;;;;;;4985985;28;20022;-79
2023/05/10 06:25:56;;;;;;;58.38;35.75;;;13.80;90.00;;;;;;5003180;28;20476;-78
2023/05/10 06:28:21;;;;;;;53.60;33.63;;;13.80;89.60;;;;;;5004707;28;20030;-81
2023/05/10 06:30:47;;;;;;;53.75;32.65;;;13.80;89.60;;;;;;5009504;28;20036;-79
2023/05/10 06:33:13;;;;;;;54.25;33.75;;;13.80;89.60;;;;;;5006418;28;20022;-79
2023/05/10 06:35:39;;;;;;;56.08;34.00;;;13.80;89.70;;;;;;5002529;28;20041;-79
2023/05/10 06:38:04;;;;;;;51.22;33.70;;;13.80;89.50;;;;;;5006280;28;20409;-79
2023/05/10 06:40:30;;;;;;;48.58;31.05;;;13.80;89.50;;;;;;4999483;28;20022;-78
2023/05/10 06:42:56;;;;;;;50.58;30.73;;;13.90;89.40;;;;;;5016732;28;20044;-81
2023/05/10 06:45:22;;;;;;;53.45;33.78;;;13.90;89.40;;;;;;5014861;28;20106;-80
2023/05/10 06:47:47;;;;;;;48.85;31.42;;;14.00;89.30;;;;;;5002571;28;20044;-80
2023/05/10 06:50:13;;;;;;;44.70;29.10;;;14.10;89.10;;;;;;5001653;28;20029;-82
2023/05/10 06:52:39;;;;;;;47.22;29.30;;;14.10;88.60;;;;;;5003221;28;20037;-76
2023/05/10 06:55:05;;;;;;;43.25;28.75;;;14.10;88.10;;;;;;5000534;28;20053;-81
2023/05/10 06:57:31;;;;;;;44.72;28.85;;;14.20;88.40;;;;;;5002061;28;20100;-77
2023/05/10 06:59:58;;;;;;;43.42;28.77;;;14.20;87.60;;;;;;5003622;28;20153;-79
2023/05/10 07:02:24;;;;;;;44.00;27.30;;;14.30;87.50;;;;;;5002947;28;20532;-82
2023/05/10 07:04:51;;;;;;;45.80;27.48;;;14.40;87.40;;;;;;4993140;28;20026;-79
2023/05/10 07:07:17;;;;;;;43.28;26.58;;;14.50;87.00;;;;;;5005004;28;20049;-80
2023/05/10 07:09:43;;;;;;;38.30;24.20;;;14.60;86.90;;;;;;4987338;28;20044;-80
2023/05/10 07:12:08;;;;;;;42.50;25.42;;;14.80;86.80;;;;;;5000970;28;20192;-78
2023/05/10 07:14:34;;;;;;;35.30;24.83;;;15.00;85.80;;;;;;5008313;28;20029;-79
2023/05/10 07:17:00;;;;;;;30.20;22.52;;;15.10;85.50;;;;;;4983364;28;20048;-79
2023/05/10 07:19:25;;;;;;;36.75;22.95;;;15.30;85.30;;;;;;5006591;28;20630;-82
2023/05/10 07:21:51;;;;;;;35.63;21.80;;;15.30;84.30;;;;;;4998307;28;20053;-81
2023/05/10 07:24:17;;;;;;;31.55;21.58;;;15.50;84.30;;;;;;5003528;28;20035;-79
2023/05/10 07:26:43;;;;;;;32.53;21.00;;;15.60;84.00;;;;;;5003724;28;20499;-79
2023/05/10 07:29:08;;;;;;;34.95;21.38;;;15.50;83.20;;;;;;5003847;28;20073;-80
2023/05/10 07:31:34;;;;;;;31.65;21.58;;;15.40;83.30;;;;;;5002257;28;20037;-79
2023/05/10 07:34:00;;;;;;;36.30;21.35;;;15.20;83.50;;;;;;4999950;28;20057;-77
2023/05/10 07:36:26;;;;;;;33.13;20.98;;;15.10;84.00;;;;;;4997060;28;20030;-79
2023/05/10 07:38:52;;;;;;;29.60;21.63;;;15.10;84.20;;;;;;5000390;28;20022;-78
2023/05/10 07:41:17;;;;;;;39.85;21.23;;;14.90;84.20;;;;;;5004508;28;20077;-79
2023/05/10 07:43:43;;;;;;;37.33;23.70;;;14.80;84.50;;;;;;5001561;28;20037;-77
2023/05/10 07:46:10;;;;;;;35.08;22.95;;;14.60;84.90;;;;;;5000705;28;20112;-79
2023/05/10 07:48:37;;;;;;;37.95;22.95;;;14.50;85.40;;;;;;5004865;28;20029;-78
2023/05/10 07:51:03;;;;;;;35.85;23.65;;;14.50;85.60;;;;;;5003461;28;20438;-79
2023/05/10 07:53:28;;;;;;;32.05;22.83;;;14.50;85.80;;;;;;5003008;28;20099;-78
2023/05/10 07:55:58;;;;;;;35.80;22.75;;;14.40;86.20;;;;;;5002886;28;20030;-78
2023/05/10 07:58:24;;;;;;;36.38;25.17;;;14.40;86.50;;;;;;5001499;28;20423;-78
2023/05/10 08:00:50;;;;;;;37.45;24.75;;;14.40;86.60;;;;;;5001006;28;20041;-81
2023/05/10 08:03:16;;;;;;;43.53;32.75;;;14.40;86.20;;;;;;5003511;28;20610;-77
2023/05/10 08:05:43;;;;;;;39.55;29.23;;;14.50;86.00;;;;;;5002017;28;20021;-78
2023/05/10 08:08:09;;;;;;;40.45;30.85;;;14.50;86.20;;;;;;5003035;28;20030;-81
2023/05/10 08:10:35;;;;;;;37.88;28.45;;;14.60;86.20;;;;;;5003314;28;20084;-79
2023/05/10 08:13:00;;;;;;;37.33;25.35;;;14.70;86.20;;;;;;5001045;28;20421;-81
2023/05/10 08:15:26;;;;;;;35.10;26.13;;;14.80;85.80;;;;;;5002042;28;20026;-78
2023/05/10 08:17:52;;;;;;;35.33;24.33;;;14.80;85.60;;;;;;5000180;28;20137;-80
2023/05/10 08:20:20;;;;;;;33.55;23.23;;;14.90;85.30;;;;;;5003912;28;20699;-81
2023/05/10 08:22:46;;;;;;;31.70;20.27;;;14.90;85.10;;;;;;5003555;28;20133;-78
2023/05/10 08:25:12;;;;;;;34.42;21.75;;;14.80;85.30;;;;;;5002182;28;20041;-77
2023/05/10 08:27:37;;;;;;;32.58;22.42;;;14.80;85.00;;;;;;5000524;28;20395;-78
2023/05/10 08:30:03;;;;;;;32.05;20.65;;;14.70;85.20;;;;;;5003082;28;20460;-79
2023/05/10 08:32:29;;;;;;;31.83;22.45;;;14.70;85.40;;;;;;4988731;28;20039;-79
2023/05/10 08:34:56;;;;;;;36.63;24.88;;;14.60;85.60;;;;;;5001269;28;20057;-77
2023/05/10 08:37:23;;;;;;;34.45;23.35;;;14.60;85.90;;;;;;4997683;28;20026;-79
2023/05/10 08:39:49;;;;;;;35.30;22.48;;;14.60;85.70;;;;;;4999608;28;20028;-78
2023/05/10 08:42:21;;;;;;;32.85;21.73;;;14.60;85.90;;;;;;5002818;28;20046;-78
2023/05/10 08:44:49;;;;;;;31.35;22.25;;;14.60;86.00;;;;;;5002283;28;20026;-82
2023/05/10 08:47:18;;;;;;;34.25;21.48;;;14.60;86.20;;;;;;5002574;28;20125;-79
2023/05/10 08:49:48;;;;;;;31.00;20.83;;;14.60;86.30;;;;;;5001203;28;20034;-81
2023/05/10 08:52:16;;;;;;;33.95;22.13;;;14.60;86.30;;;;;;5001317;28;20038;-79
2023/05/10 08:54:42;;;;;;;32.42;21.15;;;14.60;86.30;;;;;;5003747;28;20445;-79
2023/05/10 08:57:08;;;;;;;32.25;22.63;;;14.60;86.50;;;;;;5005260;28;20048;-79
2023/05/10 08:59:34;;;;;;;34.33;22.70;;;14.70;86.30;;;;;;4985739;28;20057;-81
2023/05/10 09:02:02;;;;;;;34.45;22.38;;;14.80;85.40;;;;;;4997340;28;20274;-82
2023/05/10 09:04:29;;;;;;;32.55;22.45;;;14.90;85.30;;;;;;5007950;28;20517;-80
2023/05/10 09:06:55;;;;;;;33.10;22.45;;;15.10;84.20;;;;;;5003857;28;20493;-82
2023/05/10 09:09:22;;;;;;;31.70;21.75;;;15.20;83.50;;;;;;4989871;28;20033;-81
2023/05/10 09:11:48;;;;;;;34.60;20.70;;;15.40;83.40;;;;;;5002892;28;20172;-82
2023/05/10 09:14:15;;;;;;;28.98;19.70;;;15.60;83.50;;;;;;5002175;28;20575;-78
2023/05/10 09:16:41;;;;;;;31.27;20.92;;;15.70;83.20;;;;;;5003184;28;20251;-79
2023/05/10 09:19:08;;;;;;;33.85;19.85;;;15.70;82.50;;;;;;5006815;28;20041;-79
2023/05/10 09:21:38;;;;;;;30.23;20.08;;;15.90;82.70;;;;;;5005861;28;20045;-80
2023/05/10 09:24:05;;;;;;;33.80;20.73;;;16.00;82.40;;;;;;5006323;28;20093;-81
2023/05/10 09:26:31;;;;;;;30.23;18.67;;;16.10;81.90;;;;;;5005106;28;20049;-76
2023/05/10 09:28:58;;;;;;;29.98;19.10;;;16.30;81.50;;;;;;5006735;28;20041;-77
2023/05/10 09:31:42;;;;;;;30.55;20.30;;;16.20;80.70;;;;;;5001711;28;20414;-80
2023/05/10 09:34:08;;;;;;;25.25;18.58;;;16.10;80.20;;;;;;5001796;28;20064;-77
2023/05/10 09:36:33;;;;;;;34.83;20.45;;;16.10;80.30;;;;;;4999805;28;20427;-79
2023/05/10 09:38:59;;;;;;;33.60;19.40;;;16.10;80.60;;;;;;5003670;28;20572;-77
2023/05/10 09:41:25;;;;;;;30.42;20.65;;;16.10;80.70;;;;;;5002171;28;20483;-81
2023/05/10 09:43:55;;;;;;;30.48;20.98;;;16.30;81.70;;;;;;5005093;28;20075;-81
2023/05/10 09:46:22;;;;;;;28.83;19.60;;;16.30;81.30;;;;;;5004130;28;20037;-81
2023/05/10 09:48:48;;;;;;;33.70;21.20;;;16.50;81.30;;;;;;5002669;28;20513;-79
2023/05/10 09:51:24;;;;;;;31.65;21.35;;;16.70;80.10;;;;;;5002169;28;20046;-81
2023/05/10 09:54:09;;;;;;;31.60;20.92;;;17.00;80.20;;;;;;5000831;28;20121;-84
2023/05/10 09:56:38;;;;;;;31.70;21.33;;;17.30;78.70;;;;;;4985423;28;20069;-81
2023/05/10 09:59:05;;;;;;;27.75;21.48;;;17.50;77.80;;;;;;4986080;28;20282;-79
2023/05/10 10:01:30;;;;;;;32.10;21.80;;;17.50;76.70;;;;;;5000524;28;20104;-78
2023/05/10 10:03:59;;;;;;;35.03;21.63;;;17.50;75.80;;;;;;5006231;28;20518;-82
2023/05/10 10:06:25;;;;;;;27.48;20.63;;;17.60;76.30;;;;;;5002036;28;20092;-82
2023/05/10 10:08:51;;;;;;;29.67;20.95;;;17.80;75.30;;;;;;5005509;28;20439;-82
2023/05/10 10:11:17;;;;;;;29.05;20.73;;;17.90;75.30;;;;;;4987068;28;20217;-80
2023/05/10 10:13:43;;;;;;;30.10;23.38;;;17.90;74.80;;;;;;5005556;28;20469;-79
2023/05/10 10:16:09;;;;;;;30.48;21.17;;;17.90;75.20;;;;;;4985536;28;20375;-80
2023/05/10 10:18:38;;;;;;;26.38;20.52;;;17.80;74.20;;;;;;5001186;28;20006;-79
2023/05/10 10:21:06;;;;;;;26.48;21.33;;;17.90;75.60;;;;;;5004618;28;20571;-79
2023/05/10 10:23:32;;;;;;;26.75;21.05;;;18.20;75.30;;;;;;5003197;28;20014;-77
2023/05/10 10:25:58;;;;;;;29.33;22.63;;;18.10;76.20;;;;;;4986674;28;20025;-76
2023/05/10 10:28:51;;;;;;;28.98;23.00;;;18.00;75.90;;;;;;5000701;28;20045;-80
2023/05/10 10:31:32;;;;;;;24.55;20.13;;;18.00;75.60;;;;;;5003353;28;20480;-81
2023/05/10 10:34:06;;;;;;;28.02;19.00;;;17.90;75.90;;;;;;5004253;28;20010;-82
2023/05/10 10:36:33;;;;;;;;;;;17.70;75.60;;;;;;5006586;28;20045;-81
2023/05/10 10:39:09;;;;;;;23.63;18.65;;;17.60;75.70;;;;;;5004138;28;19917;-80
2023/05/10 10:41:55;;;;;;;23.23;17.58;;;17.50;75.80;;;;;;5005567;28;20046;-81
2023/05/10 10:44:33;;;;;;;25.45;18.20;;;17.40;76.50;;;;;;5004371;28;20072;-80
2023/05/10 10:47:29;;;;;;;23.75;18.25;;;17.30;77.10;;;;;;5001036;28;20143;-80
2023/05/10 10:49:58;;;;;;;23.95;18.92;;;17.20;77.40;;;;;;5002079;28;20033;-79
2023/05/10 10:52:37;;;;;;;24.98;19.25;;;17.20;75.80;;;;;;5002270;28;20057;-80
2023/05/10 10:55:09;;;;;;;24.58;19.73;;;17.10;76.70;;;;;;5004982;28;20097;-81
2023/05/10 10:57:41;;;;;;;27.83;20.02;;;17.30;76.30;;;;;;5003964;28;20038;-79
2023/05/10 11:00:20;;;;;;;26.35;19.70;;;17.50;75.10;;;;;;4985970;28;20042;-80
2023/05/10 11:02:51;;;;;;;30.02;20.67;;;17.60;75.40;;;;;;5003914;28;20026;-79
2023/05/10 11:05:23;;;;;;;27.17;19.90;;;17.60;75.00;;;;;;5002433;28;20739;-80
2023/05/10 11:07:56;;;;;;;27.92;21.08;;;17.60;75.70;;;;;;5000145;28;20076;-82
2023/05/10 11:10:24;;;;;;;;;;;17.50;75.70;;;;;;5003267;28;20050;-84
2023/05/10 11:13:01;;;;;;;25.10;18.95;;;17.50;76.30;;;;;;5001532;28;19931;-80
2023/05/10 11:15:35;;;;;;;24.75;19.83;;;17.40;76.10;;;;;;4986455;28;20030;-85
2023/05/10 11:18:19;;;;;;;;;;;17.30;76.20;;;;;;4998864;28;20029;-80
2023/05/10 11:21:02;;;;;;;28.13;18.80;;;17.20;76.70;;;;;;5005393;28;20257;-81
2023/05/10 11:23:43;;;;;;;25.83;18.42;;;17.30;76.80;;;;;;5002820;28;20022;-83
2023/05/10 11:26:09;;;;;;;23.85;19.05;;;17.60;76.30;;;;;;5016768;28;20038;-83
2023/05/10 11:28:41;;;;;;;24.52;18.27;;;17.70;75.80;;;;;;5026389;28;20018;-84
2023/05/10 11:31:06;;;;;;;25.25;17.83;;;17.70;75.70;;;;;;5026986;28;20030;-84
2023/05/10 11:33:43;;;;;;;23.90;19.42;;;17.90;74.60;;;;;;5005975;28;20076;-82
2023/05/10 11:36:15;;;;;;;21.77;19.08;;;18.10;74.50;;;;;;4985072;28;20100;-80
2023/05/10 11:38:41;;;;;;;26.30;20.40;;;18.50;73.90;;;;;;5003385;28;20026;-82
2023/05/10 11:41:12;;;;;;;25.42;20.92;;;18.70;72.50;;;;;;4996872;28;20026;-80
2023/05/10 11:43:39;;;;;;;25.90;19.65;;;18.90;71.60;;;;;;4998168;28;20030;-81
2023/05/10 11:46:10;;;;;;;22.65;18.23;;;18.80;71.00;;;;;;4983403;28;20467;-79
2023/05/10 11:48:38;;;;;;;24.60;19.48;;;18.80;72.10;;;;;;5003419;28;20073;-80
2023/05/10 11:51:04;;;;;;;25.38;19.70;;;18.60;72.50;;;;;;5001080;28;20037;-77
2023/05/10 11:53:31;;;;;;;26.48;20.17;;;18.60;71.70;;;;;;4982493;28;20033;-77
2023/05/10 11:56:07;;;;;;;29.45;20.40;;;18.60;71.60;;;;;;4999755;28;20071;-76
2023/05/10 11:58:34;;;;;;;26.23;20.20;;;18.60;72.40;;;;;;4999364;28;20022;-76
2023/05/10 12:01:00;;;;;;;26.60;19.13;;;18.60;71.90;;;;;;4978381;28;20085;-76
2023/05/10 12:03:27;;;;;;;24.98;18.88;;;18.60;72.70;;;;;;4977043;28;20042;-77
2023/05/10 12:05:53;;;;;;;24.83;18.90;;;18.40;73.00;;;;;;4977782;28;20092;-76
2023/05/10 12:08:24;;;;;;;24.92;19.13;;;18.30;72.70;;;;;;4978888;28;20041;-78
2023/05/10 12:10:51;;;;;;;28.45;20.90;;;18.00;73.80;;;;;;4975679;28;20041;-78
2023/05/10 12:13:17;;;;;;;25.77;19.65;;;17.80;76.20;;;;;;4978239;28;20030;-77
2023/05/10 12:15:43;;;;;;;26.40;20.48;;;17.40;77.40;;;;;;4981097;28;20022;-76
2023/05/10 12:18:10;;;;;;;27.15;21.17;;;17.20;79.30;;;;;;4981365;28;20720;-77
2023/05/10 12:20:36;;;;;;;30.15;22.98;;;17.10;80.00;;;;;;4983397;28;20110;-76
2023/05/10 12:23:03;;;;;;;28.85;23.40;;;16.90;81.30;;;;;;4982246;28;20053;-77
2023/05/10 12:25:36;;;;;;;29.63;23.75;;;16.70;82.20;;;;;;4985344;28;20038;-76
2023/05/10 12:28:06;;;;;;;30.05;24.45;;;16.70;83.30;;;;;;4984700;28;20065;-76
2023/05/10 12:30:34;;;;;;;35.13;27.42;;;16.70;83.60;;;;;;4986297;28;20077;-75
2023/05/10 12:33:12;;;;;;;34.15;26.70;;;16.70;84.40;;;;;;4986650;28;20112;-75